Terminal Aerodrome Forecast
Issued by NWS Pueblo, CO

Home | Current Version | Previous Version | Text Only | Print | Product List | Glossary On
Versions: 1 2 3 4 5 6 7 8 9 10 11 12
000
FTUS45 KPUB 301141
TAFPUB
TAF
KPUB 301141Z 3012/0112 30006KT P6SM SCT140 BKN250
     FM301700 02007KT P6SM SCT120 BKN200
     FM302300 09011KT P6SM SCT090 BKN200
     FM010000 06010KT P6SM VCTS SCT090CB BKN150
     FM010300 03012KT P6SM VCSH SCT080 BKN120
     FM010600 35008KT P6SM SCT080 BKN150=

USA.gov is the U.S. government's official web portal to all federal, state and local government web resources and services.